Time;durP1;ratioP1;P1;durP2;ratioP2;P2;SDS_P1;SDS_P2;PMS_P1;PMS_P2;Temp;Humidity;BMP_temperature;BMP_pressure;BME280_temperature;BME280_humidity;BME280_pressure;Samples;Min_cycle;Max_cycle;Signal;HPM_P1;HPM_P2
2021/01/06 00:02:21;;;;;;;12.50;10.80;;;7.10;99.90;;;;;;5051759;28;20418;-75
2021/01/06 00:04:46;;;;;;;10.83;9.60;;;7.10;99.90;;;;;;5052072;28;20413;-75
2021/01/06 00:07:12;;;;;;;11.00;9.90;;;7.10;99.90;;;;;;5052522;28;20894;-75
2021/01/06 00:09:38;;;;;;;10.60;9.50;;;7.10;99.90;;;;;;5053491;28;20653;-76
2021/01/06 00:12:07;;;;;;;10.97;9.87;;;7.10;99.90;;;;;;5052772;28;20626;-78
2021/01/06 00:14:33;;;;;;;12.50;9.97;;;7.10;99.90;;;;;;5053835;28;20377;-75
2021/01/06 00:16:59;;;;;;;10.70;9.23;;;7.10;99.90;;;;;;5053432;28;20393;-75
2021/01/06 00:19:26;;;;;;;12.10;9.67;;;7.10;99.90;;;;;;5052646;28;20424;-74
2021/01/06 00:21:51;;;;;;;13.33;10.33;;;7.10;99.90;;;;;;5053136;28;20432;-74
2021/01/06 00:24:18;;;;;;;12.00;9.67;;;7.20;99.90;;;;;;5052751;28;20396;-75
2021/01/06 00:26:44;;;;;;;11.77;9.60;;;7.20;99.90;;;;;;5061724;28;20187;-76
2021/01/06 00:29:10;;;;;;;11.10;9.80;;;7.20;99.90;;;;;;5056375;28;20417;-75
2021/01/06 00:31:43;;;;;;;10.67;9.50;;;7.10;99.90;;;;;;5064243;28;20536;-75
2021/01/06 00:34:11;;;;;;;9.73;8.70;;;7.10;99.90;;;;;;5060043;28;20387;-74
2021/01/06 00:36:37;;;;;;;10.07;9.00;;;7.10;99.90;;;;;;5060380;28;20863;-75
2021/01/06 00:39:05;;;;;;;13.47;10.40;;;7.20;99.90;;;;;;5055083;28;20445;-77
2021/01/06 00:41:34;;;;;;;11.60;9.20;;;7.20;99.90;;;;;;5052705;28;20430;-75
2021/01/06 00:44:01;;;;;;;12.00;10.10;;;7.20;99.90;;;;;;5052603;28;20429;-76
2021/01/06 00:46:29;;;;;;;11.50;9.07;;;7.20;99.90;;;;;;5052441;28;20903;-74
2021/01/06 00:48:56;;;;;;;10.43;8.80;;;7.30;99.90;;;;;;5052945;28;20388;-74
2021/01/06 00:51:22;;;;;;;10.77;9.30;;;7.30;99.90;;;;;;5051455;28;20425;-74
2021/01/06 00:53:47;;;;;;;10.13;9.03;;;7.30;99.90;;;;;;5053269;28;20389;-74
2021/01/06 00:56:13;;;;;;;10.23;8.40;;;7.30;99.90;;;;;;5066810;28;20183;-74
2021/01/06 00:58:39;;;;;;;11.33;10.13;;;7.20;99.90;;;;;;5053072;28;20269;-74
2021/01/06 01:01:04;;;;;;;10.70;9.30;;;7.20;99.90;;;;;;5050347;28;20266;-75
2021/01/06 01:03:30;;;;;;;9.93;8.90;;;7.20;99.90;;;;;;5052487;28;20191;-74
2021/01/06 01:05:56;;;;;;;9.33;7.93;;;7.40;99.90;;;;;;5052511;28;20191;-74
2021/01/06 01:08:22;;;;;;;11.33;9.90;;;7.20;99.90;;;;;;5051466;28;20186;-74
2021/01/06 01:10:50;;;;;;;10.70;8.87;;;7.20;99.90;;;;;;5052396;28;20232;-74
2021/01/06 01:13:21;;;;;;;10.40;8.87;;;7.30;99.90;;;;;;5051328;28;20665;-75
2021/01/06 01:15:51;;;;;;;10.60;8.80;;;7.30;99.90;;;;;;5052538;28;20433;-74
2021/01/06 01:18:19;;;;;;;11.37;8.43;;;7.40;99.90;;;;;;5051266;28;20795;-75
2021/01/06 01:20:47;;;;;;;11.87;9.07;;;7.40;99.90;;;;;;5052474;28;20405;-73
2021/01/06 01:23:16;;;;;;;11.53;10.33;;;7.30;99.90;;;;;;5051011;28;20483;-75
2021/01/06 01:25:42;;;;;;;12.57;9.83;;;7.40;99.90;;;;;;5083746;28;20414;-74
2021/01/06 01:28:10;;;;;;;11.80;9.50;;;7.40;99.90;;;;;;5051377;28;20422;-75
2021/01/06 01:30:35;;;;;;;9.97;8.97;;;7.30;99.90;;;;;;5052329;28;20447;-74
2021/01/06 01:33:01;;;;;;;11.03;9.53;;;7.20;99.90;;;;;;5050698;28;20551;-77
2021/01/06 01:35:30;;;;;;;11.07;8.87;;;7.10;99.90;;;;;;5050341;28;20236;-74
2021/01/06 01:37:57;;;;;;;11.30;9.43;;;7.20;99.90;;;;;;5050537;28;20594;-75
2021/01/06 01:40:25;;;;;;;10.93;8.77;;;7.10;99.90;;;;;;5051599;28;20903;-75
2021/01/06 01:42:59;;;;;;;9.80;8.80;;;7.20;99.90;;;;;;5051017;28;20392;-75
2021/01/06 01:45:27;;;;;;;11.87;9.17;;;7.20;99.90;;;;;;5051492;28;20453;-75
2021/01/06 01:48:03;;;;;;;11.10;9.50;;;7.20;99.90;;;;;;5052021;28;20415;-75
2021/01/06 01:50:30;;;;;;;10.87;9.37;;;7.20;99.90;;;;;;5053791;28;20385;-75
2021/01/06 01:53:07;;;;;;;11.70;9.30;;;7.20;99.90;;;;;;5057277;28;20526;-75
2021/01/06 01:55:36;;;;;;;11.20;9.30;;;7.30;99.90;;;;;;5060079;28;20774;-75
2021/01/06 01:58:06;;;;;;;10.57;9.50;;;7.40;99.90;;;;;;5058944;28;20426;-77
2021/01/06 02:00:38;;;;;;;11.27;8.77;;;7.40;99.90;;;;;;5061804;28;20583;-75
2021/01/06 02:03:22;;;;;;;12.27;8.73;;;7.40;99.90;;;;;;5062689;28;20771;-77
2021/01/06 02:06:01;;;;;;;11.40;9.30;;;7.40;99.90;;;;;;5060956;28;20412;-75
2021/01/06 02:08:36;;;;;;;11.33;9.77;;;7.40;99.90;;;;;;5062476;28;20415;-74
2021/01/06 02:11:11;;;;;;;9.87;8.87;;;7.40;99.90;;;;;;5060591;28;20427;-76
2021/01/06 02:14:02;;;;;;;12.20;9.27;;;7.50;99.90;;;;;;5064458;28;20431;-75
2021/01/06 02:16:49;;;;;;;9.80;8.80;;;7.50;99.90;;;;;;5060565;28;20421;-75
2021/01/06 02:19:23;;;;;;;10.70;9.70;;;7.50;99.90;;;;;;5061538;28;20816;-75
2021/01/06 02:21:49;;;;;;;10.10;9.00;;;7.50;99.90;;;;;;5061224;28;20391;-75
2021/01/06 02:24:15;;;;;;;12.30;9.33;;;7.40;99.90;;;;;;5063332;28;20730;-75
2021/01/06 02:26:41;;;;;;;11.80;9.20;;;7.20;99.90;;;;;;5067549;28;20490;-75
2021/01/06 02:29:08;;;;;;;10.47;9.07;;;7.30;99.90;;;;;;5064021;28;20387;-75
2021/01/06 02:31:34;;;;;;;9.20;8.10;;;7.20;99.90;;;;;;5064125;28;20459;-75
2021/01/06 02:34:01;;;;;;;11.23;8.77;;;7.20;99.90;;;;;;5063695;28;20476;-75
2021/01/06 02:36:27;;;;;;;13.00;8.23;;;7.20;99.90;;;;;;5059194;28;20442;-75
2021/01/06 02:38:53;;;;;;;10.87;9.50;;;7.20;99.90;;;;;;5062931;28;20925;-75
2021/01/06 02:41:20;;;;;;;8.23;7.40;;;7.20;99.90;;;;;;5062315;28;20390;-75
2021/01/06 02:43:48;;;;;;;10.30;9.30;;;7.00;99.90;;;;;;5061304;28;20408;-74
2021/01/06 02:46:16;;;;;;;10.50;8.77;;;6.80;99.90;;;;;;5053836;28;20943;-74
2021/01/06 02:48:42;;;;;;;9.85;8.60;;;6.80;99.90;;;;;;5067844;28;20416;-74
2021/01/06 02:51:34;;;;;;;10.83;8.50;;;6.90;99.90;;;;;;5070196;28;20203;-75
2021/01/06 02:54:04;;;;;;;9.63;7.50;;;7.00;99.90;;;;;;5050478;28;20762;-74
2021/01/06 02:56:32;;;;;;;13.10;8.97;;;6.90;99.90;;;;;;5054755;28;20395;-75
2021/01/06 02:59:00;;;;;;;12.03;9.57;;;7.00;99.90;;;;;;5055020;28;20428;-75
2021/01/06 03:01:29;;;;;;;9.07;8.17;;;7.10;99.90;;;;;;5052958;28;21235;-75
2021/01/06 03:03:56;;;;;;;8.73;7.83;;;7.00;99.90;;;;;;5054839;28;20493;-74
2021/01/06 03:06:40;;;;;;;9.60;8.70;;;6.80;99.90;;;;;;5053934;28;20398;-75
2021/01/06 03:09:28;;;;;;;10.23;9.13;;;6.80;99.90;;;;;;5057648;28;20380;-76
2021/01/06 03:11:55;;;;;;;10.70;8.70;;;6.90;99.90;;;;;;5067919;28;20492;-75
2021/01/06 03:14:23;;;;;;;9.80;8.90;;;7.00;99.90;;;;;;5062412;28;20498;-74
2021/01/06 03:16:49;;;;;;;10.03;9.00;;;7.10;99.90;;;;;;5063551;28;20415;-74
2021/01/06 03:19:17;;;;;;;11.70;8.43;;;7.10;99.90;;;;;;5060790;28;20927;-75
2021/01/06 03:21:44;;;;;;;10.10;8.47;;;7.00;99.90;;;;;;5062187;28;20411;-74
2021/01/06 03:24:11;;;;;;;8.47;7.60;;;7.10;99.90;;;;;;5063048;28;20743;-75
2021/01/06 03:26:39;;;;;;;9.40;8.50;;;7.10;99.90;;;;;;5061696;28;20421;-75
2021/01/06 03:29:05;;;;;;;8.68;7.88;;;7.10;99.90;;;;;;5062189;28;20876;-76
2021/01/06 03:31:39;;;;;;;9.03;7.93;;;7.00;99.90;;;;;;5064074;28;20202;-75
2021/01/06 03:34:15;;;;;;;9.30;7.67;;;7.00;99.90;;;;;;5062945;28;20391;-76
2021/01/06 03:36:45;;;;;;;11.67;8.97;;;7.10;99.90;;;;;;5062155;28;20429;-75
2021/01/06 03:39:22;;;;;;;9.27;7.73;;;7.10;99.90;;;;;;5068595;28;20395;-75
2021/01/06 03:41:48;;;;;;;10.33;8.80;;;7.00;99.90;;;;;;5053949;28;20451;-74
2021/01/06 03:44:15;;;;;;;9.53;8.53;;;7.10;99.90;;;;;;5052335;28;20749;-75
2021/01/06 03:46:54;;;;;;;10.93;9.37;;;7.10;99.90;;;;;;5054219;28;20487;-74
2021/01/06 03:49:31;;;;;;;9.90;9.00;;;7.10;99.90;;;;;;5053387;28;20400;-75
2021/01/06 03:52:15;;;;;;;10.73;8.87;;;7.20;99.90;;;;;;5053468;28;20932;-74
2021/01/06 03:54:49;;;;;;;9.93;8.97;;;7.20;99.90;;;;;;5053893;28;20487;-75
2021/01/06 03:57:15;;;;;;;8.50;7.67;;;7.30;99.90;;;;;;5053005;28;20410;-75
2021/01/06 03:59:46;;;;;;;10.10;9.10;;;7.30;99.90;;;;;;5054179;28;20438;-75
2021/01/06 04:02:11;;;;;;;11.23;8.90;;;7.30;99.90;;;;;;5051917;28;20505;-75
2021/01/06 04:04:41;;;;;;;10.00;8.90;;;7.30;99.90;;;;;;5052181;28;20471;-75
2021/01/06 04:07:27;;;;;;;9.73;8.73;;;7.30;99.90;;;;;;5053432;28;20160;-77
2021/01/06 04:10:14;;;;;;;10.70;8.57;;;7.30;99.90;;;;;;5053959;28;20402;-75
2021/01/06 04:12:40;;;;;;;9.20;8.10;;;7.30;99.90;;;;;;5053769;28;20449;-75
2021/01/06 04:15:08;;;;;;;10.30;8.70;;;7.30;99.90;;;;;;5053783;28;20396;-77
2021/01/06 04:17:37;;;;;;;10.23;8.40;;;7.20;99.90;;;;;;5053596;28;20384;-75
2021/01/06 04:20:15;;;;;;;9.93;8.93;;;7.10;99.90;;;;;;5053272;28;20423;-77
2021/01/06 04:22:53;;;;;;;11.37;9.63;;;6.90;99.90;;;;;;5061182;28;20871;-76
2021/01/06 04:25:18;;;;;;;10.10;8.63;;;6.90;99.90;;;;;;5070869;28;20398;-75
2021/01/06 04:27:44;;;;;;;9.57;8.57;;;7.00;99.90;;;;;;5072164;28;20748;-76
2021/01/06 04:30:32;;;;;;;11.40;10.13;;;7.00;99.90;;;;;;5072910;28;20204;-77
2021/01/06 04:33:00;;;;;;;10.40;9.10;;;7.00;99.90;;;;;;5068181;28;20551;-76
2021/01/06 04:35:28;;;;;;;10.47;9.30;;;7.10;99.90;;;;;;5051133;28;21333;-75
2021/01/06 04:37:55;;;;;;;11.13;10.10;;;7.20;99.90;;;;;;5052078;28;20446;-75
2021/01/06 04:40:23;;;;;;;10.07;8.13;;;7.10;99.90;;;;;;5052606;28;20414;-76
2021/01/06 04:42:50;;;;;;;11.60;10.50;;;7.10;99.90;;;;;;5053162;28;20395;-75
2021/01/06 04:45:21;;;;;;;10.30;9.30;;;7.00;99.90;;;;;;5052949;28;20376;-75
2021/01/06 04:47:56;;;;;;;8.63;7.73;;;6.80;99.90;;;;;;5053547;28;20393;-75
2021/01/06 04:50:46;;;;;;;12.07;10.97;;;6.90;99.90;;;;;;5052870;28;20462;-75
2021/01/06 04:53:53;;;;;;;11.40;10.27;;;7.00;99.90;;;;;;5052406;28;20435;-75
2021/01/06 04:56:58;;;;;;;12.17;11.13;;;6.90;99.90;;;;;;5047304;28;20443;-75
2021/01/06 04:59:46;;;;;;;12.03;10.93;;;6.90;99.90;;;;;;5052713;28;20384;-75
2021/01/06 05:02:37;;;;;;;13.37;10.50;;;6.80;99.90;;;;;;5052623;28;20384;-75
2021/01/06 05:05:15;;;;;;;10.97;9.00;;;6.80;99.90;;;;;;5053070;28;20855;-75
2021/01/06 05:07:53;;;;;;;8.87;7.97;;;6.80;99.90;;;;;;5053209;28;20394;-75
2021/01/06 05:10:24;;;;;;;9.97;8.40;;;6.80;99.90;;;;;;5052538;28;20400;-76
2021/01/06 05:12:52;;;;;;;12.03;8.20;;;6.90;99.90;;;;;;5053107;28;20561;-75
2021/01/06 05:15:47;;;;;;;9.53;8.63;;;7.00;99.90;;;;;;5052319;28;20429;-75
2021/01/06 05:18:13;;;;;;;11.00;8.50;;;7.00;99.90;;;;;;5051732;28;20402;-76
2021/01/06 05:20:39;;;;;;;9.10;8.20;;;6.80;99.90;;;;;;5052881;28;20761;-75
2021/01/06 05:23:14;;;;;;;10.00;8.60;;;6.80;99.90;;;;;;5052917;28;20183;-75
2021/01/06 05:25:40;;;;;;;12.77;11.63;;;6.60;99.90;;;;;;5053002;28;20221;-75
2021/01/06 05:28:11;;;;;;;9.87;8.90;;;6.70;99.90;;;;;;5052823;28;20397;-75
2021/01/06 05:30:37;;;;;;;9.70;8.70;;;6.70;99.90;;;;;;5051650;28;20178;-75
2021/01/06 05:33:08;;;;;;;13.77;10.47;;;6.60;99.90;;;;;;5052463;28;20479;-75
2021/01/06 05:35:41;;;;;;;11.70;10.50;;;6.60;99.90;;;;;;5052027;28;20553;-75
2021/01/06 05:38:07;;;;;;;9.87;8.83;;;6.50;99.90;;;;;;5052154;28;20770;-75
2021/01/06 05:40:35;;;;;;;10.40;9.30;;;6.60;99.90;;;;;;5052078;28;20409;-75
2021/01/06 05:43:21;;;;;;;10.60;9.50;;;6.60;99.90;;;;;;5052163;28;20390;-76
2021/01/06 05:45:56;;;;;;;12.20;10.13;;;6.60;99.90;;;;;;5040329;28;20863;-75
2021/01/06 05:48:22;;;;;;;12.63;9.57;;;6.50;99.90;;;;;;5051489;28;20403;-75
2021/01/06 05:51:03;;;;;;;9.83;8.57;;;6.50;99.90;;;;;;5052155;28;20413;-75
2021/01/06 05:53:35;;;;;;;10.90;9.00;;;6.40;99.90;;;;;;5050345;28;20213;-75
2021/01/06 05:56:25;;;;;;;16.33;12.25;;;6.50;99.90;;;;;;5070155;28;20804;-75
2021/01/06 05:59:01;;;;;;;13.48;10.23;;;6.50;99.90;;;;;;5044199;28;20186;-75
2021/01/06 06:01:59;;;;;;;17.33;11.77;;;6.40;99.90;;;;;;5050643;28;20194;-75
2021/01/06 06:05:00;;;;;;;13.83;10.50;;;6.50;99.90;;;;;;5040691;28;20444;-75
2021/01/06 06:07:35;;;;;;;11.13;10.03;;;6.50;99.90;;;;;;5039196;28;20545;-75
2021/01/06 06:10:29;;;;;;;11.67;9.30;;;6.60;99.90;;;;;;5051095;28;20380;-75
2021/01/06 06:13:41;;;;;;;12.90;11.57;;;6.50;99.90;;;;;;5051738;28;20423;-75
2021/01/06 06:16:34;;;;;;;13.27;10.13;;;6.40;99.90;;;;;;5047297;28;20479;-75
2021/01/06 06:19:30;;;;;;;13.60;10.50;;;6.40;99.90;;;;;;5032020;28;20408;-75
2021/01/06 06:22:31;;;;;;;15.02;10.10;;;6.40;99.90;;;;;;5037522;28;20394;-76
2021/01/06 06:25:15;;;;;;;13.18;11.85;;;6.30;99.90;;;;;;5031512;28;20182;-75
2021/01/06 06:28:04;;;;;;;17.83;11.57;;;6.30;99.90;;;;;;5030677;28;20178;-75
2021/01/06 06:30:48;;;;;;;17.30;11.40;;;6.30;99.90;;;;;;5036391;28;20810;-75
2021/01/06 06:33:34;;;;;;;14.35;10.90;;;6.20;99.90;;;;;;5051074;28;20888;-77
2021/01/06 06:36:19;;;;;;;14.02;9.85;;;6.00;99.90;;;;;;5051954;28;20221;-75
2021/01/06 06:38:48;;;;;;;14.68;10.50;;;6.10;99.90;;;;;;5051599;28;20162;-75
2021/01/06 06:41:23;;;;;;;19.57;10.90;;;6.20;99.90;;;;;;5050400;28;20186;-76
2021/01/06 06:44:13;;;;;;;13.53;11.00;;;6.40;99.90;;;;;;5051531;28;20431;-75
2021/01/06 06:46:44;;;;;;;15.67;11.73;;;6.40;99.90;;;;;;5050771;28;20487;-75
2021/01/06 06:49:35;;;;;;;14.37;10.53;;;6.40;99.90;;;;;;5053705;28;20430;-76
2021/01/06 06:52:18;;;;;;;14.03;10.90;;;6.50;99.90;;;;;;5055751;28;20466;-76
2021/01/06 06:54:52;;;;;;;15.50;11.27;;;6.40;99.90;;;;;;5055879;28;20420;-76
2021/01/06 06:57:52;;;;;;;14.77;10.35;;;6.30;99.90;;;;;;5054993;28;20197;-76
2021/01/06 07:00:21;;;;;;;14.00;10.30;;;6.40;99.90;;;;;;5055044;28;20190;-76
2021/01/06 07:03:03;;;;;;;16.10;10.37;;;6.30;99.90;;;;;;5055516;28;20755;-76
2021/01/06 07:05:59;;;;;;;17.27;12.70;;;6.30;99.90;;;;;;5039781;28;20490;-76
2021/01/06 07:08:32;;;;;;;20.57;12.53;;;6.20;99.90;;;;;;5054968;28;20177;-75
2021/01/06 07:11:30;;;;;;;14.15;11.48;;;6.20;99.90;;;;;;5055951;28;20715;-75
2021/01/06 07:14:23;;;;;;;14.55;11.48;;;6.30;99.90;;;;;;5042809;28;20662;-75
2021/01/06 07:16:51;;;;;;;13.82;10.70;;;6.40;99.90;;;;;;5034684;28;20585;-75
2021/01/06 07:19:28;;;;;;;12.73;10.93;;;6.40;99.90;;;;;;5045219;28;20208;-75
2021/01/06 07:22:23;;;;;;;13.65;10.68;;;6.50;99.90;;;;;;5054640;28;20202;-74
2021/01/06 07:25:01;;;;;;;14.37;10.13;;;6.60;99.90;;;;;;5054058;28;20181;-74
2021/01/06 07:27:31;;;;;;;14.52;10.98;;;6.70;99.90;;;;;;5054365;28;20456;-73
2021/01/06 07:29:57;;;;;;;16.90;11.73;;;6.70;99.90;;;;;;5055086;28;20232;-74
2021/01/06 07:32:34;;;;;;;13.10;10.20;;;6.70;99.90;;;;;;5053811;28;20416;-74
2021/01/06 07:35:07;;;;;;;11.53;10.33;;;6.60;99.90;;;;;;5054554;28;20483;-74
2021/01/06 07:37:54;;;;;;;12.52;10.38;;;6.40;99.90;;;;;;5053059;28;20805;-74
2021/01/06 07:40:28;;;;;;;11.35;8.95;;;6.40;99.90;;;;;;5085972;28;20186;-76
2021/01/06 07:43:17;;;;;;;12.33;11.03;;;6.20;99.90;;;;;;5054279;28;20227;-74
2021/01/06 07:45:59;;;;;;;11.95;10.40;;;6.10;99.90;;;;;;5053408;28;20399;-74
2021/01/06 07:48:48;;;;;;;14.38;10.75;;;6.30;99.90;;;;;;5053019;28;20178;-74
2021/01/06 07:51:23;;;;;;;11.67;10.27;;;6.30;99.90;;;;;;5044716;28;20181;-74
2021/01/06 07:54:35;;;;;;;12.73;11.37;;;6.50;99.90;;;;;;5054171;28;20598;-74
2021/01/06 07:57:01;;;;;;;11.70;10.02;;;6.60;99.90;;;;;;5046016;28;20410;-74
2021/01/06 07:59:44;;;;;;;11.90;10.33;;;6.50;99.90;;;;;;5052122;28;20174;-74
2021/01/06 08:02:19;;;;;;;13.10;10.43;;;6.60;99.90;;;;;;5053342;28;20180;-75
2021/01/06 08:04:56;;;;;;;14.80;10.25;;;6.50;99.90;;;;;;5050722;28;20418;-74
2021/01/06 08:07:24;;;;;;;12.75;9.98;;;6.20;99.90;;;;;;5050615;28;20187;-78
2021/01/06 08:09:51;;;;;;;13.60;10.90;;;6.50;99.90;;;;;;5053453;28;20186;-76
2021/01/06 08:12:39;;;;;;;10.43;8.60;;;7.00;99.90;;;;;;5053119;28;20485;-76
2021/01/06 08:15:29;;;;;;;10.90;8.90;;;8.20;99.90;;;;;;5054040;28;20406;-77
2021/01/06 08:18:11;;;;;;;10.13;7.30;;;9.30;99.90;;;;;;5054130;28;20412;-76
2021/01/06 08:20:51;;;;;;;11.77;10.07;;;10.20;99.90;;;;;;5053371;28;20408;-76
2021/01/06 08:23:25;;;;;;;11.03;9.50;;;11.00;95.90;;;;;;5053705;28;20412;-76
2021/01/06 08:26:00;;;;;;;11.77;10.57;;;11.50;95.10;;;;;;5053367;28;20456;-76
2021/01/06 08:28:28;;;;;;;13.00;11.70;;;11.90;96.20;;;;;;5052992;28;20424;-77
2021/01/06 08:31:21;;;;;;;10.50;9.50;;;12.40;95.60;;;;;;5053796;28;20408;-77
2021/01/06 08:33:57;;;;;;;10.43;9.53;;;12.90;95.90;;;;;;5053360;28;20538;-76
2021/01/06 08:36:53;;;;;;;10.63;9.63;;;13.30;93.30;;;;;;5052092;28;20463;-76
2021/01/06 08:39:23;;;;;;;10.67;9.77;;;13.10;84.90;;;;;;5053236;28;20433;-75
2021/01/06 08:41:50;;;;;;;11.53;10.43;;;12.70;82.30;;;;;;5052934;28;20416;-75
2021/01/06 08:44:29;;;;;;;11.37;10.17;;;12.00;82.60;;;;;;5053081;28;20780;-75
2021/01/06 08:46:57;;;;;;;10.93;9.87;;;11.40;84.40;;;;;;5053428;28;20432;-75
2021/01/06 08:49:30;;;;;;;10.80;9.90;;;10.90;86.30;;;;;;5053118;28;20405;-75
2021/01/06 08:52:16;;;;;;;11.40;10.30;;;10.30;88.50;;;;;;5053188;28;20467;-74
2021/01/06 08:54:43;;;;;;;11.73;10.63;;;9.90;90.90;;;;;;5052364;28;20507;-76
2021/01/06 08:57:36;;;;;;;12.50;10.93;;;9.60;91.80;;;;;;5052774;28;20424;-74
2021/01/06 09:00:42;;;;;;;11.80;10.73;;;9.00;93.00;;;;;;5054109;28;20437;-76
2021/01/06 09:03:07;;;;;;;12.97;11.50;;;8.70;94.10;;;;;;5030517;28;20401;-76
2021/01/06 09:05:40;;;;;;;13.60;11.53;;;8.40;94.70;;;;;;5040285;28;20981;-77
2021/01/06 09:08:15;;;;;;;14.03;10.40;;;8.20;95.10;;;;;;5041909;28;20189;-76
2021/01/06 09:11:00;;;;;;;13.77;11.43;;;8.00;96.00;;;;;;5033046;28;20446;-76
2021/01/06 09:13:50;;;;;;;13.87;11.30;;;7.60;96.80;;;;;;5032174;28;20426;-76
2021/01/06 09:16:18;;;;;;;14.90;10.83;;;7.30;97.90;;;;;;5032694;28;20426;-76
2021/01/06 09:18:51;;;;;;;14.67;11.00;;;7.20;98.30;;;;;;5032688;28;20437;-76
2021/01/06 09:21:20;;;;;;;13.93;11.30;;;7.10;98.50;;;;;;5033062;28;20377;-76
2021/01/06 09:23:51;;;;;;;13.83;12.33;;;7.10;98.70;;;;;;5032117;28;20923;-76
2021/01/06 09:26:23;;;;;;;13.87;12.40;;;7.00;98.90;;;;;;5033043;28;20414;-76
2021/01/06 09:29:06;;;;;;;17.93;15.30;;;7.10;98.70;;;;;;5052355;28;21627;-78
2021/01/06 09:31:38;;;;;;;17.17;13.50;;;7.00;98.80;;;;;;5051539;28;20417;-76
2021/01/06 09:34:05;;;;;;;17.48;13.10;;;7.00;99.00;;;;;;5053139;28;20402;-76
2021/01/06 09:36:31;;;;;;;14.47;12.10;;;6.90;99.00;;;;;;5052410;28;20579;-77
2021/01/06 09:38:58;;;;;;;15.97;12.57;;;6.90;99.10;;;;;;5052669;28;20392;-77
2021/01/06 09:41:31;;;;;;;16.93;13.20;;;6.90;99.20;;;;;;5052421;28;20391;-79
2021/01/06 09:44:07;;;;;;;15.77;12.60;;;7.00;98.90;;;;;;5052706;28;20461;-77
2021/01/06 09:46:54;;;;;;;17.70;13.23;;;6.90;98.80;;;;;;5052061;28;20438;-77
2021/01/06 09:49:42;;;;;;;21.83;14.27;;;6.90;98.60;;;;;;5052659;28;20368;-76
2021/01/06 09:52:25;;;;;;;22.63;16.30;;;7.00;99.20;;;;;;5052529;28;20187;-77
2021/01/06 09:54:53;;;;;;;19.17;13.23;;;7.00;98.50;;;;;;5048113;28;20436;-76
2021/01/06 09:57:21;;;;;;;20.53;14.17;;;6.90;98.60;;;;;;5053137;28;20384;-77
2021/01/06 09:59:54;;;;;;;20.77;15.18;;;6.80;98.90;;;;;;5052000;28;20445;-77
2021/01/06 10:02:32;;;;;;;20.70;14.73;;;6.80;98.80;;;;;;5051189;28;20174;-76
2021/01/06 10:05:37;;;;;;;22.50;15.70;;;6.80;99.10;;;;;;5052301;28;20183;-77
2021/01/06 10:08:23;;;;;;;19.83;15.23;;;6.90;99.20;;;;;;5052398;28;20407;-76
2021/01/06 10:10:54;;;;;;;20.17;15.47;;;6.90;99.00;;;;;;5058728;28;20364;-77
2021/01/06 10:13:55;;;;;;;18.30;14.80;;;6.80;99.00;;;;;;5090927;28;20415;-77
2021/01/06 10:16:27;;;;;;;20.00;15.97;;;6.80;98.70;;;;;;5057472;28;20372;-76
2021/01/06 10:19:09;;;;;;;21.63;17.17;;;6.80;98.90;;;;;;5050782;28;20392;-76
2021/01/06 10:21:34;;;;;;;19.57;14.87;;;6.70;99.30;;;;;;5051302;28;20937;-77
2021/01/06 10:24:29;;;;;;;20.80;15.00;;;6.70;99.00;;;;;;5054889;28;20394;-76
2021/01/06 10:27:21;;;;;;;19.02;16.33;;;6.80;99.40;;;;;;5047825;28;20191;-76
2021/01/06 10:29:50;;;;;;;20.07;14.70;;;6.70;99.20;;;;;;5055616;28;20193;-77
2021/01/06 10:32:16;;;;;;;22.07;17.67;;;6.80;98.90;;;;;;5055699;28;20602;-77
2021/01/06 10:34:50;;;;;;;19.17;16.50;;;6.80;98.70;;;;;;5053952;28;20455;-77
2021/01/06 10:37:19;;;;;;;20.87;15.33;;;6.60;98.60;;;;;;5057151;28;20192;-76
2021/01/06 10:39:55;;;;;;;19.98;14.98;;;6.70;98.80;;;;;;5055335;28;20404;-77
2021/01/06 10:42:20;;;;;;;21.37;16.73;;;6.70;98.90;;;;;;5055941;28;20179;-77
2021/01/06 10:45:05;;;;;;;18.10;14.57;;;6.70;99.10;;;;;;5055310;28;20791;-77
2021/01/06 10:47:30;;;;;;;21.20;16.77;;;6.70;98.80;;;;;;5054998;28;20515;-78
2021/01/06 10:50:20;;;;;;;21.90;15.50;;;6.70;98.80;;;;;;5055366;28;20419;-76
2021/01/06 10:53:05;;;;;;;21.07;17.10;;;6.70;98.60;;;;;;5055074;28;20209;-77
2021/01/06 10:55:37;;;;;;;20.83;13.80;;;6.70;98.50;;;;;;5053780;28;20432;-78
2021/01/06 10:58:10;;;;;;;19.73;13.98;;;6.70;98.60;;;;;;5055604;28;20186;-78
2021/01/06 11:01:05;;;;;;;19.17;15.90;;;6.70;98.40;;;;;;5055103;28;20167;-77
2021/01/06 11:03:50;;;;;;;18.43;13.87;;;6.70;98.30;;;;;;5054652;28;20762;-77
2021/01/06 11:06:34;;;;;;;17.77;13.52;;;6.60;98.60;;;;;;5055369;28;20412;-77
2021/01/06 11:09:39;;;;;;;18.60;14.67;;;6.70;99.00;;;;;;5055454;28;20166;-77
2021/01/06 11:12:42;;;;;;;17.33;13.60;;;6.60;98.60;;;;;;5055233;28;20448;-77
2021/01/06 11:15:29;;;;;;;25.25;15.35;;;6.40;99.00;;;;;;5055202;28;20409;-77
2021/01/06 11:18:21;;;;;;;20.65;14.60;;;6.40;99.30;;;;;;5054684;28;20217;-78
2021/01/06 11:21:14;;;;;;;22.00;13.77;;;6.40;99.30;;;;;;5045651;28;20255;-77
2021/01/06 11:23:54;;;;;;;20.42;15.63;;;6.40;99.20;;;;;;5054546;28;20297;-77
2021/01/06 11:26:32;;;;;;;22.50;16.27;;;6.50;99.30;;;;;;5059615;28;20182;-77
2021/01/06 11:29:03;;;;;;;18.40;13.93;;;6.60;98.90;;;;;;5053938;28;20219;-77
2021/01/06 11:31:33;;;;;;;18.80;16.02;;;6.70;98.80;;;;;;5054399;28;20197;-79
2021/01/06 11:34:21;;;;;;;17.13;14.57;;;6.70;98.90;;;;;;5053881;28;20175;-77
2021/01/06 11:36:58;;;;;;;13.23;11.07;;;6.80;98.80;;;;;;5053850;28;20433;-78
2021/01/06 11:39:27;;;;;;;17.10;12.40;;;6.90;98.40;;;;;;5055313;28;20164;-78
2021/01/06 11:42:11;;;;;;;15.60;13.50;;;6.90;98.20;;;;;;5054285;28;20387;-77
2021/01/06 11:44:58;;;;;;;16.35;13.02;;;7.00;98.10;;;;;;5054265;28;20170;-78
2021/01/06 11:47:53;;;;;;;15.75;13.30;;;6.90;97.90;;;;;;5054443;28;20622;-78
2021/01/06 11:50:41;;;;;;;17.50;12.87;;;7.00;97.90;;;;;;5034853;28;20167;-77
2021/01/06 11:53:25;;;;;;;15.50;11.93;;;7.00;97.50;;;;;;5034625;28;20424;-77
2021/01/06 11:56:12;;;;;;;15.80;13.90;;;7.00;97.70;;;;;;5034026;28;20403;-77
2021/01/06 11:58:54;;;;;;;19.83;12.97;;;7.10;97.70;;;;;;5049228;28;20775;-78
2021/01/06 12:01:43;;;;;;;16.40;12.17;;;7.10;97.60;;;;;;5034558;28;20475;-78
2021/01/06 12:04:26;;;;;;;19.90;15.80;;;7.20;97.50;;;;;;5036562;28;20463;-78
2021/01/06 12:07:07;;;;;;;19.73;14.70;;;7.10;97.30;;;;;;5033867;28;20377;-77
2021/01/06 12:09:49;;;;;;;23.40;16.40;;;7.10;97.50;;;;;;5034009;28;20397;-78
2021/01/06 12:12:30;;;;;;;22.27;17.40;;;7.10;97.60;;;;;;5034131;28;20451;-78
2021/01/06 12:15:01;;;;;;;23.60;16.83;;;7.10;97.70;;;;;;5033812;28;20724;-78
2021/01/06 12:17:35;;;;;;;24.53;16.13;;;7.00;97.80;;;;;;5033928;28;20739;-78
2021/01/06 12:20:21;;;;;;;24.23;18.37;;;7.10;97.70;;;;;;5050326;28;20380;-77
2021/01/06 12:23:15;;;;;;;24.57;17.97;;;7.10;97.50;;;;;;5033839;28;20382;-77
2021/01/06 12:25:56;;;;;;;26.70;17.47;;;7.00;97.70;;;;;;5033180;28;20743;-76
2021/01/06 12:28:45;;;;;;;28.00;19.00;;;7.00;97.80;;;;;;5041792;28;20370;-77
2021/01/06 12:31:21;;;;;;;25.77;17.20;;;6.90;97.60;;;;;;5053447;28;20429;-77
2021/01/06 12:34:24;;;;;;;24.50;17.15;;;7.00;97.60;;;;;;5051532;28;20452;-77
2021/01/06 12:37:12;;;;;;;22.83;15.83;;;6.90;97.80;;;;;;5050878;28;20177;-77
2021/01/06 12:39:39;;;;;;;26.00;15.50;;;6.90;97.30;;;;;;5052679;28;20409;-77
2021/01/06 12:42:14;;;;;;;20.63;14.87;;;6.90;97.50;;;;;;5053142;28;20408;-77
2021/01/06 12:45:20;;;;;;;21.33;15.30;;;7.00;97.40;;;;;;5051069;28;20520;-77
2021/01/06 12:47:54;;;;;;;19.67;13.90;;;7.00;97.20;;;;;;5060751;28;20398;-77
2021/01/06 12:50:31;;;;;;;17.63;12.37;;;7.00;96.90;;;;;;5051351;28;20771;-81
2021/01/06 12:53:21;;;;;;;17.07;13.30;;;7.10;97.00;;;;;;5049277;28;20416;-77
2021/01/06 12:56:05;;;;;;;16.67;13.00;;;7.00;97.20;;;;;;5046151;28;20437;-76
2021/01/06 12:58:41;;;;;;;16.70;12.50;;;7.00;97.30;;;;;;5051178;28;20874;-73
2021/01/06 13:01:22;;;;;;;15.43;11.87;;;7.00;97.40;;;;;;5052711;28;20478;-76
2021/01/06 13:03:56;;;;;;;16.97;12.33;;;7.00;97.50;;;;;;5051014;28;20403;-76
2021/01/06 13:06:30;;;;;;;17.13;11.87;;;7.00;97.50;;;;;;5052120;28;20790;-75
2021/01/06 13:09:08;;;;;;;18.70;12.50;;;7.00;97.50;;;;;;5047828;28;20386;-75
2021/01/06 13:11:36;;;;;;;13.70;11.63;;;7.00;97.10;;;;;;5051209;28;20474;-79
2021/01/06 13:14:34;;;;;;;15.53;12.50;;;7.10;97.10;;;;;;5052490;28;20944;-76
2021/01/06 13:17:15;;;;;;;17.00;13.43;;;7.10;97.30;;;;;;5049147;28;20840;-75
2021/01/06 13:19:59;;;;;;;16.10;12.70;;;7.10;97.00;;;;;;5049532;28;20398;-76
2021/01/06 13:22:56;;;;;;;17.10;13.90;;;7.10;97.00;;;;;;5051782;28;20395;-76
2021/01/06 13:25:25;;;;;;;15.67;12.30;;;7.00;97.00;;;;;;5051529;28;20396;-75
2021/01/06 13:27:51;;;;;;;19.13;12.60;;;7.00;97.10;;;;;;5051701;28;20535;-78
2021/01/06 13:30:35;;;;;;;15.93;12.60;;;7.10;97.00;;;;;;5052179;28;20642;-78
2021/01/06 13:33:21;;;;;;;15.73;12.63;;;7.10;97.00;;;;;;5052592;28;20257;-78